Time;durP1;ratioP1;P1;durP2;ratioP2;P2;SDS_P1;SDS_P2;PMS_P1;PMS_P2;Temp;Humidity;BMP_temperature;BMP_pressure;BME280_temperature;BME280_humidity;BME280_pressure;Samples;Min_cycle;Max_cycle;Signal;HPM_P1;HPM_P2
2021/07/28 00:00:53;;;;;;;26.00;20.07;;;;;;;;;;4995476;28;20445;-68
2021/07/28 00:03:20;;;;;;;30.10;20.13;;;;;;;;;;4995000;28;20443;-68
2021/07/28 00:05:49;;;;;;;25.03;19.13;;;;;;;;;;4994681;28;20440;-68
2021/07/28 00:08:16;;;;;;;26.30;19.87;;;;;;;;;;4994687;28;20530;-68
2021/07/28 00:10:43;;;;;;;29.60;20.50;;;;;;;;;;4994599;28;20444;-69
2021/07/28 00:13:10;;;;;;;27.50;21.47;;;;;;;;;;4994574;28;20454;-68
2021/07/28 00:15:37;;;;;;;27.53;18.13;;;;;;;;;;5045130;28;20453;-69
2021/07/28 00:18:12;;;;;;;22.83;16.47;;;;;;;;;;5076169;28;20454;-69
2021/07/28 00:23:26;;;;;;;20.50;14.40;;;;;;;;;;5075824;28;20442;-68
2021/07/28 00:25:53;;;;;;;20.70;16.70;;;;;;;;;;5075946;28;20475;-68
2021/07/28 00:28:20;;;;;;;20.60;15.40;;;;;;;;;;5075914;28;20449;-69
2021/07/28 00:30:47;;;;;;;19.07;15.50;;;;;;;;;;5075908;28;20441;-69
2021/07/28 00:33:14;;;;;;;20.43;15.23;;;;;;;;;;5075832;28;20453;-68
2021/07/28 00:35:41;;;;;;;18.77;14.13;;;;;;;;;;5075780;28;20441;-68
2021/07/28 00:38:09;;;;;;;22.93;15.70;;;;;;;;;;5075911;28;20474;-68
2021/07/28 00:40:37;;;;;;;17.10;13.90;;;;;;;;;;5075831;28;20531;-69
2021/07/28 00:43:11;;;;;;;17.97;14.90;;;;;;;;;;5075550;28;20480;-68
2021/07/28 00:45:40;;;;;;;18.83;14.87;;;;;;;;;;5075342;28;20926;-68
2021/07/28 00:48:08;;;;;;;16.10;12.30;;;;;;;;;;5075673;28;20518;-68
2021/07/28 00:50:35;;;;;;;15.23;13.40;;;;;;;;;;5075503;28;20446;-68
2021/07/28 00:53:03;;;;;;;17.47;14.20;;;;;;;;;;5075895;28;20450;-69
2021/07/28 00:55:31;;;;;;;16.17;13.63;;;;;;;;;;5075097;28;20449;-69
2021/07/28 00:58:00;;;;;;;18.17;14.20;;;;;;;;;;5075364;28;20449;-69
2021/07/28 01:00:28;;;;;;;16.60;14.47;;;;;;;;;;5075562;28;20441;-69
2021/07/28 01:02:55;;;;;;;16.67;13.20;;;;;;;;;;5075193;28;20521;-69
2021/07/28 01:05:22;;;;;;;16.33;14.20;;;;;;;;;;5074883;28;20502;-70
2021/07/28 01:07:49;;;;;;;16.83;13.77;;;;;;;;;;5075358;28;20452;-69
2021/07/28 01:10:17;;;;;;;19.60;13.47;;;;;;;;;;5075658;28;20444;-70
2021/07/28 01:12:46;;;;;;;17.87;13.07;;;;;;;;;;5075162;28;20537;-70
2021/07/28 01:15:32;;;;;;;16.77;12.97;;;;;;;;;;5074689;28;20539;-70
2021/07/28 01:18:00;;;;;;;17.20;14.23;;;;;;;;;;5075084;28;20985;-70
2021/07/28 01:20:29;;;;;;;21.23;14.40;;;;;;;;;;5074899;28;20445;-70
2021/07/28 01:22:58;;;;;;;22.23;14.03;;;;;;;;;;5075334;28;20796;-69
2021/07/28 01:25:27;;;;;;;17.73;13.17;;;;;;;;;;5074755;28;20445;-69
2021/07/28 01:27:56;;;;;;;22.80;14.50;;;;;;;;;;5074740;28;20441;-70
2021/07/28 01:30:23;;;;;;;19.27;13.77;;;;;;;;;;5074380;28;20445;-70
2021/07/28 01:32:50;;;;;;;16.20;12.83;;;;;;;;;;5074344;28;20456;-70
2021/07/28 01:35:18;;;;;;;18.63;13.10;;;;;;;;;;5074572;28;20445;-69
2021/07/28 01:37:45;;;;;;;20.87;13.43;;;;;;;;;;5074140;28;20453;-69
2021/07/28 01:40:13;;;;;;;18.07;14.53;;;;;;;;;;5074219;28;20434;-69
2021/07/28 01:42:43;;;;;;;14.33;12.80;;;;;;;;;;5074432;28;20492;-70
2021/07/28 01:45:10;;;;;;;15.73;13.10;;;;;;;;;;5074105;28;20928;-70
2021/07/28 01:47:37;;;;;;;18.23;13.50;;;;;;;;;;5074862;28;20456;-70
2021/07/28 01:50:07;;;;;;;21.03;13.43;;;;;;;;;;5074483;28;20450;-70
2021/07/28 01:52:34;;;;;;;17.63;13.47;;;;;;;;;;5073721;28;20501;-70
2021/07/28 01:55:01;;;;;;;20.83;13.83;;;;;;;;;;5073943;28;20549;-70
2021/07/28 01:57:29;;;;;;;17.13;14.60;;;;;;;;;;5074953;28;20786;-70
2021/07/28 02:00:00;;;;;;;22.10;14.23;;;;;;;;;;5074188;28;20438;-70
2021/07/28 02:02:31;;;;;;;25.70;14.10;;;;;;;;;;5074014;28;20475;-70
2021/07/28 02:04:58;;;;;;;15.90;13.33;;;;;;;;;;5073844;28;20470;-71
2021/07/28 02:07:26;;;;;;;17.07;13.60;;;;;;;;;;5073710;28;20964;-70
2021/07/28 02:09:53;;;;;;;21.03;13.73;;;;;;;;;;5073993;28;20444;-70
2021/07/28 02:12:20;;;;;;;15.00;12.80;;;;;;;;;;5073997;28;20448;-70
2021/07/28 02:14:47;;;;;;;19.83;14.57;;;;;;;;;;5073629;28;20956;-70
2021/07/28 02:17:16;;;;;;;16.43;14.07;;;;;;;;;;5073830;28;20443;-70
2021/07/28 02:19:43;;;;;;;19.73;13.30;;;;;;;;;;5073851;28;20543;-70
2021/07/28 02:22:11;;;;;;;16.70;14.27;;;;;;;;;;5074508;28;20502;-70
2021/07/28 02:24:38;;;;;;;18.80;15.00;;;;;;;;;;5073849;28;20449;-70
2021/07/28 02:27:05;;;;;;;19.50;15.63;;;;;;;;;;5073499;28;20448;-70
2021/07/28 02:29:33;;;;;;;18.90;14.33;;;;;;;;;;5074388;28;20452;-70
2021/07/28 02:32:01;;;;;;;20.30;13.83;;;;;;;;;;5074105;28;20946;-70
2021/07/28 02:34:29;;;;;;;17.90;14.50;;;;;;;;;;5074139;28;20849;-70
2021/07/28 02:36:56;;;;;;;17.57;13.80;;;;;;;;;;5073662;28;20441;-70
2021/07/28 02:39:23;;;;;;;18.07;13.70;;;;;;;;;;5041321;28;20458;-70
2021/07/28 02:41:51;;;;;;;19.07;13.10;;;;;;;;;;5033406;28;20472;-69
2021/07/28 02:44:18;;;;;;;16.13;12.67;;;;;;;;;;5033627;28;20442;-70
2021/07/28 02:46:45;;;;;;;18.60;13.17;;;;;;;;;;5033202;28;20441;-70
2021/07/28 02:49:12;;;;;;;20.97;13.23;;;;;;;;;;5033162;28;20475;-70
2021/07/28 02:51:41;;;;;;;12.83;11.17;;;;;;;;;;5033595;28;20445;-69
2021/07/28 02:54:10;;;;;;;15.63;12.50;;;;;;;;;;5033430;28;20458;-69
2021/07/28 02:56:38;;;;;;;18.97;12.97;;;;;;;;;;5033484;28;20489;-69
2021/07/28 02:59:06;;;;;;;13.97;12.50;;;;;;;;;;5033554;28;20490;-69
2021/07/28 03:01:33;;;;;;;17.37;13.53;;;;;;;;;;5033569;28;20457;-69
2021/07/28 03:04:00;;;;;;;13.10;11.57;;;;;;;;;;5034814;28;20491;-69
2021/07/28 03:06:28;;;;;;;19.43;12.60;;;;;;;;;;5037133;28;20443;-69
2021/07/28 03:08:56;;;;;;;18.57;12.70;;;;;;;;;;5037023;28;20449;-69
2021/07/28 03:11:23;;;;;;;15.33;12.90;;;;;;;;;;5037501;28;20454;-71
2021/07/28 03:13:50;;;;;;;16.63;12.60;;;;;;;;;;5037489;28;20916;-70
2021/07/28 03:16:18;;;;;;;20.67;15.10;;;;;;;;;;5037167;28;20451;-69
2021/07/28 03:18:45;;;;;;;17.20;14.37;;;;;;;;;;5037292;28;20916;-69
2021/07/28 03:21:12;;;;;;;26.03;15.03;;;;;;;;;;5037889;28;20445;-69
2021/07/28 03:23:40;;;;;;;18.10;13.90;;;;;;;;;;5036769;28;20982;-70
2021/07/28 03:26:08;;;;;;;17.80;14.43;;;;;;;;;;5037131;28;20450;-69
2021/07/28 03:28:35;;;;;;;25.33;16.23;;;;;;;;;;5037245;28;20452;-69
2021/07/28 03:31:03;;;;;;;16.20;14.50;;;;;;;;;;5037003;28;20438;-69
2021/07/28 03:33:30;;;;;;;20.47;15.30;;;;;;;;;;5037133;28;20453;-69
2021/07/28 03:35:57;;;;;;;21.07;14.60;;;;;;;;;;5037262;28;20438;-69
2021/07/28 03:38:24;;;;;;;20.03;14.37;;;;;;;;;;5044938;28;20470;-69
2021/07/28 03:40:51;;;;;;;16.67;14.27;;;;;;;;;;5056740;28;20433;-69
2021/07/28 03:43:20;;;;;;;20.77;14.60;;;;;;;;;;5056796;28;20485;-69
2021/07/28 03:45:48;;;;;;;20.10;14.70;;;;;;;;;;5056711;28;20953;-69
2021/07/28 03:48:15;;;;;;;18.13;14.07;;;;;;;;;;5056561;28;20470;-69
2021/07/28 03:50:42;;;;;;;18.83;14.13;;;;;;;;;;5056249;28;20445;-70
2021/07/28 03:53:10;;;;;;;16.57;14.40;;;;;;;;;;5056183;28;20449;-69
2021/07/28 03:55:37;;;;;;;16.20;13.37;;;;;;;;;;5056466;28;20489;-69
2021/07/28 03:58:04;;;;;;;16.00;13.50;;;;;;;;;;5056405;28;20443;-69
2021/07/28 04:00:33;;;;;;;17.47;13.33;;;;;;;;;;5056370;28;20444;-69
2021/07/28 04:03:00;;;;;;;15.13;12.93;;;;;;;;;;5056280;28;20488;-69
2021/07/28 04:05:27;;;;;;;17.70;12.43;;;;;;;;;;5056463;28;20541;-69
2021/07/28 04:07:57;;;;;;;17.30;13.70;;;;;;;;;;5056279;28;20442;-70
2021/07/28 04:10:24;;;;;;;20.20;12.27;;;;;;;;;;5055833;28;20528;-69
2021/07/28 04:12:52;;;;;;;19.40;12.73;;;;;;;;;;5056186;28;20456;-69
2021/07/28 04:15:19;;;;;;;17.93;12.07;;;;;;;;;;5055738;28;20462;-70
2021/07/28 04:17:48;;;;;;;17.67;12.33;;;;;;;;;;5056109;28;20791;-69
2021/07/28 04:20:16;;;;;;;16.27;12.77;;;;;;;;;;5054409;28;20434;-70
2021/07/28 04:22:43;;;;;;;13.50;12.10;;;;;;;;;;5046829;28;20846;-69
2021/07/28 04:25:11;;;;;;;14.83;11.67;;;;;;;;;;5035840;28;20453;-70
2021/07/28 04:27:38;;;;;;;13.67;11.30;;;;;;;;;;5035902;28;20446;-70
2021/07/28 04:30:06;;;;;;;13.20;11.60;;;;;;;;;;5036261;28;20504;-70
2021/07/28 04:32:34;;;;;;;16.77;11.77;;;;;;;;;;5036046;28;20449;-70
2021/07/28 04:35:02;;;;;;;15.27;12.00;;;;;;;;;;5035773;28;20946;-70
2021/07/28 04:37:31;;;;;;;15.43;12.73;;;;;;;;;;5034759;28;20438;-69
2021/07/28 04:40:01;;;;;;;16.70;12.37;;;;;;;;;;5016467;28;20432;-70
2021/07/28 04:42:29;;;;;;;12.80;11.33;;;;;;;;;;5015862;28;20481;-70
2021/07/28 04:44:56;;;;;;;14.17;11.90;;;;;;;;;;5016597;28;20448;-70
2021/07/28 04:47:23;;;;;;;12.90;10.90;;;;;;;;;;5015621;28;20450;-70
2021/07/28 04:49:51;;;;;;;14.90;12.03;;;;;;;;;;5016586;28;20450;-70
2021/07/28 04:52:24;;;;;;;13.07;11.27;;;;;;;;;;5015085;28;20452;-71
2021/07/28 04:54:52;;;;;;;12.57;11.23;;;;;;;;;;5015366;28;20434;-70
2021/07/28 04:57:19;;;;;;;11.50;10.20;;;;;;;;;;5015129;28;20939;-70
2021/07/28 04:59:46;;;;;;;16.90;12.20;;;;;;;;;;5017921;28;20452;-70
2021/07/28 05:02:14;;;;;;;14.00;11.20;;;;;;;;;;5023809;28;20459;-70
2021/07/28 05:04:42;;;;;;;16.33;11.60;;;;;;;;;;5014940;28;21011;-70
2021/07/28 05:07:09;;;;;;;15.00;11.07;;;;;;;;;;5022966;28;20948;-70
2021/07/28 05:09:38;;;;;;;13.10;11.80;;;;;;;;;;5035224;28;20514;-70
2021/07/28 05:12:06;;;;;;;15.27;12.40;;;;;;;;;;5034796;28;20958;-70
2021/07/28 05:14:33;;;;;;;20.80;11.20;;;;;;;;;;5034578;28;20454;-70
2021/07/28 05:17:01;;;;;;;16.93;11.60;;;;;;;;;;5034592;28;20492;-68
2021/07/28 05:19:28;;;;;;;16.20;12.33;;;;;;;;;;5035010;28;20464;-70
2021/07/28 05:21:55;;;;;;;14.63;12.13;;;;;;;;;;5035073;28;20463;-70
2021/07/28 05:24:22;;;;;;;15.73;11.40;;;;;;;;;;5034929;28;20485;-69
2021/07/28 05:26:51;;;;;;;13.30;10.77;;;;;;;;;;5033645;28;20482;-71
2021/07/28 05:29:18;;;;;;;14.93;12.83;;;;;;;;;;5034198;28;20454;-70
2021/07/28 05:31:45;;;;;;;19.20;11.17;;;;;;;;;;5034539;28;20447;-70
2021/07/28 05:34:12;;;;;;;13.43;11.37;;;;;;;;;;5034681;28;20453;-71
2021/07/28 05:36:39;;;;;;;13.23;11.30;;;;;;;;;;5034692;28;20444;-71
2021/07/28 05:39:06;;;;;;;13.80;11.73;;;;;;;;;;5034581;28;20468;-71
2021/07/28 05:41:34;;;;;;;16.93;11.20;;;;;;;;;;5034251;28;20450;-71
2021/07/28 05:44:07;;;;;;;15.97;11.47;;;;;;;;;;5034774;28;20482;-71
2021/07/28 05:46:34;;;;;;;12.10;10.80;;;;;;;;;;5034152;28;20507;-71
2021/07/28 05:49:02;;;;;;;15.20;11.60;;;;;;;;;;5034535;28;20454;-72
2021/07/28 05:51:29;;;;;;;15.87;10.83;;;;;;;;;;5034402;28;20444;-72
2021/07/28 05:53:56;;;;;;;12.77;10.90;;;;;;;;;;5033981;28;20447;-71
2021/07/28 05:56:23;;;;;;;15.93;10.90;;;;;;;;;;5033969;28;20475;-71
2021/07/28 05:58:51;;;;;;;13.80;11.67;;;;;;;;;;5033905;28;20539;-71
2021/07/28 06:01:20;;;;;;;15.13;11.97;;;;;;;;;;5033761;28;20954;-71
2021/07/28 06:03:47;;;;;;;13.37;11.97;;;;;;;;;;5034351;28;20537;-71
2021/07/28 06:06:14;;;;;;;12.87;11.10;;;;;;;;;;5034120;28;20452;-71
2021/07/28 06:08:42;;;;;;;18.00;12.03;;;;;;;;;;5034096;28;20537;-71
2021/07/28 06:11:09;;;;;;;15.67;12.90;;;;;;;;;;5034489;28;20630;-71
2021/07/28 06:13:36;;;;;;;17.03;13.23;;;;;;;;;;5033642;28;20458;-72
2021/07/28 06:16:03;;;;;;;14.43;11.60;;;;;;;;;;5033654;28;20545;-71
2021/07/28 06:18:33;;;;;;;17.53;11.70;;;;;;;;;;5033526;28;20544;-72
2021/07/28 06:21:01;;;;;;;12.67;11.37;;;;;;;;;;5033632;28;20469;-72
2021/07/28 06:23:28;;;;;;;15.57;11.50;;;;;;;;;;5033448;28;20483;-72
2021/07/28 06:25:55;;;;;;;15.03;11.60;;;;;;;;;;5033864;28;20448;-72
2021/07/28 06:28:22;;;;;;;14.20;12.73;;;;;;;;;;5035339;28;20450;-72
2021/07/28 06:30:51;;;;;;;16.07;12.10;;;;;;;;;;5033266;28;20452;-72
2021/07/28 06:33:18;;;;;;;18.50;12.33;;;;;;;;;;5033682;28;20444;-65
2021/07/28 06:35:48;;;;;;;15.90;11.97;;;;;;;;;;5033298;28;20450;-71
2021/07/28 06:38:15;;;;;;;14.07;12.60;;;;;;;;;;5035757;28;20476;-71
2021/07/28 06:40:42;;;;;;;14.60;11.60;;;;;;;;;;5073576;28;20449;-72
2021/07/28 06:43:10;;;;;;;15.73;11.33;;;;;;;;;;5073152;28;20447;-73
2021/07/28 06:45:37;;;;;;;17.43;12.70;;;;;;;;;;5073205;28;20443;-72
2021/07/28 06:48:04;;;;;;;14.00;11.80;;;;;;;;;;5073208;28;20476;-72
2021/07/28 06:50:32;;;;;;;14.90;11.80;;;;;;;;;;5073436;28;20437;-73
2021/07/28 06:53:01;;;;;;;13.10;11.70;;;;;;;;;;5073375;28;20545;-72
2021/07/28 06:55:28;;;;;;;18.07;12.60;;;;;;;;;;5073161;28;20442;-72
2021/07/28 06:57:55;;;;;;;13.80;11.53;;;;;;;;;;5073114;28;20457;-72
2021/07/28 07:00:23;;;;;;;12.70;10.53;;;;;;;;;;5073460;28;20541;-72
2021/07/28 07:02:50;;;;;;;13.93;12.27;;;;;;;;;;5073061;28;20446;-72
2021/07/28 07:05:17;;;;;;;14.20;11.70;;;;;;;;;;5073292;28;20477;-73
2021/07/28 07:07:47;;;;;;;15.10;11.10;;;;;;;;;;5072974;28;20451;-73
2021/07/28 07:10:16;;;;;;;14.23;11.70;;;;;;;;;;5073308;28;20434;-71
2021/07/28 07:12:44;;;;;;;14.27;10.93;;;;;;;;;;5073211;28;20544;-73
2021/07/28 07:15:11;;;;;;;11.17;9.97;;;;;;;;;;5072489;28;20453;-72
2021/07/28 07:17:38;;;;;;;16.47;12.47;;;;;;;;;;5064065;28;20459;-73
2021/07/28 07:20:06;;;;;;;13.60;11.30;;;;;;;;;;5053108;28;20444;-73
2021/07/28 07:22:33;;;;;;;11.40;9.40;;;;;;;;;;5071875;28;20457;-73
2021/07/28 07:25:00;;;;;;;11.20;9.60;;;;;;;;;;5073406;28;20588;-73
2021/07/28 07:27:29;;;;;;;10.63;9.53;;;;;;;;;;5073112;28;20445;-73
2021/07/28 07:29:56;;;;;;;9.67;8.67;;;;;;;;;;5072718;28;20442;-73
2021/07/28 07:32:23;;;;;;;11.27;8.77;;;;;;;;;;5073057;28;20477;-72
2021/07/28 07:34:51;;;;;;;10.93;8.57;;;;;;;;;;5073046;28;20542;-74
2021/07/28 07:37:18;;;;;;;8.80;7.90;;;;;;;;;;5072756;28;20443;-73
2021/07/28 07:39:45;;;;;;;11.37;8.97;;;;;;;;;;5034982;28;20873;-73
2021/07/28 07:42:12;;;;;;;9.00;8.07;;;;;;;;;;5032861;28;20468;-74
2021/07/28 07:44:43;;;;;;;11.00;8.40;;;;;;;;;;5032899;28;20986;-73
2021/07/28 07:47:10;;;;;;;10.53;8.17;;;;;;;;;;5024690;28;20449;-73
2021/07/28 07:49:37;;;;;;;9.60;8.37;;;;;;;;;;5053641;28;20440;-75
2021/07/28 07:52:05;;;;;;;9.30;8.20;;;;;;;;;;5056458;28;20448;-74
2021/07/28 07:54:33;;;;;;;10.00;7.73;;;;;;;;;;5055889;28;20505;-74
2021/07/28 07:57:00;;;;;;;8.97;7.90;;;;;;;;;;5055991;28;20448;-75
2021/07/28 07:59:27;;;;;;;8.40;7.60;;;;;;;;;;5056067;28;20534;-74
2021/07/28 08:01:56;;;;;;;9.90;8.40;;;;;;;;;;5056384;28;20962;-74
2021/07/28 08:04:23;;;;;;;10.87;8.40;;;;;;;;;;5056094;28;20478;-75
2021/07/28 08:06:51;;;;;;;15.40;9.83;;;;;;;;;;5056247;28;20475;-74
2021/07/28 08:09:18;;;;;;;8.93;7.73;;;;;;;;;;5055853;28;20451;-73
2021/07/28 08:11:45;;;;;;;14.23;8.63;;;;;;;;;;5056219;28;20440;-75
2021/07/28 08:14:13;;;;;;;14.40;8.90;;;;;;;;;;5055809;28;20976;-74
2021/07/28 08:16:40;;;;;;;16.50;9.03;;;;;;;;;;5056403;28;20537;-75
2021/07/28 08:19:08;;;;;;;9.30;7.20;;;;;;;;;;5055690;28;20458;-80
2021/07/28 08:21:36;;;;;;;8.60;7.00;;;;;;;;;;5055270;28;21021;-75
2021/07/28 08:24:03;;;;;;;11.93;7.47;;;;;;;;;;5055473;28;20476;-74
2021/07/28 08:26:30;;;;;;;8.93;7.87;;;;;;;;;;5055653;28;20450;-74
2021/07/28 08:28:57;;;;;;;7.83;6.90;;;;;;;;;;5055557;28;20451;-74
2021/07/28 08:31:24;;;;;;;8.10;7.30;;;;;;;;;;5056356;28;20470;-73
2021/07/28 08:33:51;;;;;;;9.07;8.27;;;;;;;;;;5055775;28;20440;-73
2021/07/28 08:36:20;;;;;;;7.70;7.00;;;;;;;;;;5056089;28;20527;-72
2021/07/28 08:38:47;;;;;;;12.23;8.97;;;;;;;;;;5066790;28;20501;-70
2021/07/28 08:41:17;;;;;;;13.37;9.03;;;;;;;;;;5076223;28;20443;-72
2021/07/28 08:43:44;;;;;;;11.10;9.30;;;;;;;;;;5075520;28;20487;-72
2021/07/28 08:46:11;;;;;;;12.30;9.87;;;;;;;;;;5075933;28;20453;-72
2021/07/28 08:48:39;;;;;;;13.90;10.33;;;;;;;;;;5075978;28;20449;-74
2021/07/28 08:51:07;;;;;;;13.00;9.27;;;;;;;;;;5075530;28;20529;-70
2021/07/28 08:53:35;;;;;;;12.30;10.40;;;;;;;;;;5075493;28;20445;-70
2021/07/28 08:56:03;;;;;;;12.73;10.97;;;;;;;;;;5075388;28;20812;-72
2021/07/28 08:58:30;;;;;;;11.40;10.20;;;;;;;;;;5075027;28;20439;-70
2021/07/28 09:00:58;;;;;;;12.53;11.10;;;;;;;;;;5074891;28;20804;-73
2021/07/28 09:03:25;;;;;;;12.20;11.00;;;;;;;;;;5075551;28;20532;-72
2021/07/28 09:05:55;;;;;;;13.40;11.73;;;;;;;;;;5075191;28;20481;-72
2021/07/28 09:08:23;;;;;;;14.23;10.90;;;;;;;;;;5075071;28;20449;-72
2021/07/28 09:13:43;;;;;;;13.73;12.30;;;;;;;;;;5067194;28;20478;-71
2021/07/28 09:16:11;;;;;;;14.57;12.53;;;;;;;;;;5074960;28;20439;-70
2021/07/28 09:18:39;;;;;;;11.30;10.17;;;;;;;;;;5075217;28;20831;-70
2021/07/28 09:21:07;;;;;;;15.90;10.97;;;;;;;;;;5074881;28;20959;-70
2021/07/28 09:23:38;;;;;;;10.67;9.57;;;;;;;;;;5075035;28;20442;-70
2021/07/28 09:26:29;;;;;;;10.57;8.97;;;;;;;;;;5074755;28;20467;-69
2021/07/28 09:29:02;;;;;;;8.33;7.63;;;;;;;;;;5074481;28;20438;-69
2021/07/28 09:31:33;;;;;;;11.30;7.90;;;;;;;;;;5074687;28;20924;-70
2021/07/28 09:34:08;;;;;;;7.80;7.20;;;;;;;;;;5074374;28;20431;-69
2021/07/28 09:36:36;;;;;;;7.60;6.90;;;;;;;;;;5075066;28;20517;-69
2021/07/28 09:39:04;;;;;;;7.70;6.90;;;;;;;;;;5074843;28;20511;-70
2021/07/28 09:41:39;;;;;;;8.37;7.40;;;;;;;;;;5074595;28;20450;-70
2021/07/28 09:44:06;;;;;;;7.40;6.73;;;;;;;;;;5075069;28;20436;-71
2021/07/28 09:46:34;;;;;;;6.27;5.67;;;;;;;;;;5074527;28;20439;-68
2021/07/28 09:49:02;;;;;;;8.73;7.83;;;;;;;;;;5074575;28;20453;-69
2021/07/28 09:51:33;;;;;;;6.47;5.67;;;;;;;;;;5073994;28;20442;-69
2021/07/28 09:54:01;;;;;;;6.43;5.83;;;;;;;;;;5074462;28;20429;-70
2021/07/28 09:56:29;;;;;;;9.20;6.93;;;;;;;;;;5073844;28;20442;-70
2021/07/28 09:58:59;;;;;;;6.67;5.97;;;;;;;;;;5074502;28;20481;-70
2021/07/28 10:01:26;;;;;;;8.97;6.03;;;;;;;;;;5073727;28;20448;-70
2021/07/28 10:03:54;;;;;;;6.67;6.07;;;;;;;;;;5074101;28;20489;-68
2021/07/28 10:06:22;;;;;;;7.33;6.63;;;;;;;;;;5074224;28;20482;-72
2021/07/28 10:08:54;;;;;;;8.30;7.47;;;;;;;;;;5073987;28;20446;-72
2021/07/28 10:11:23;;;;;;;8.60;7.47;;;;;;;;;;5073724;28;20965;-72
2021/07/28 10:13:51;;;;;;;8.30;7.50;;;;;;;;;;5073533;28;20454;-70
2021/07/28 10:16:20;;;;;;;10.43;8.60;;;;;;;;;;5073783;28;20526;-72
2021/07/28 10:18:49;;;;;;;8.27;7.40;;;;;;;;;;5073786;28;20460;-70
2021/07/28 10:21:16;;;;;;;8.93;8.00;;;;;;;;;;5074015;28;20465;-70
2021/07/28 10:23:44;;;;;;;9.10;8.20;;;;;;;;;;5074610;28;20444;-74
2021/07/28 10:26:13;;;;;;;10.40;7.80;;;;;;;;;;5073711;28;20477;-71
2021/07/28 10:28:40;;;;;;;15.73;9.00;;;;;;;;;;5073721;28;20453;-71
2021/07/28 10:31:15;;;;;;;10.63;9.20;;;;;;;;;;5070531;28;20469;-72
2021/07/28 10:33:51;;;;;;;10.03;8.67;;;;;;;;;;5043237;28;20524;-70
2021/07/28 10:36:18;;;;;;;10.80;9.70;;;;;;;;;;5053365;28;20507;-71
2021/07/28 10:38:52;;;;;;;10.93;9.93;;;;;;;;;;5054282;28;20467;-70
2021/07/28 10:41:37;;;;;;;15.20;10.93;;;;;;;;;;5053413;28;20444;-72
2021/07/28 10:44:11;;;;;;;12.80;10.13;;;;;;;;;;5052736;28;20451;-70
2021/07/28 10:46:57;;;;;;;12.23;10.83;;;;;;;;;;5053509;28;20480;-70
2021/07/28 10:49:39;;;;;;;9.43;8.57;;;;;;;;;;5053849;28;20487;-70
2021/07/28 10:52:09;;;;;;;11.10;9.90;;;;;;;;;;5052667;28;20449;-70
2021/07/28 10:54:55;;;;;;;10.13;9.10;;;;;;;;;;5053254;28;20539;-71
2021/07/28 10:57:44;;;;;;;9.30;8.40;;;;;;;;;;5053291;28;20554;-72
2021/07/28 11:00:12;;;;;;;9.67;8.77;;;;;;;;;;5053077;28;20452;-72
2021/07/28 11:02:54;;;;;;;11.10;9.40;;;;;;;;;;5053212;28;20454;-69
2021/07/28 11:05:22;;;;;;;11.23;9.50;;;;;;;;;;5052369;28;20837;-74
2021/07/28 11:08:04;;;;;;;11.53;10.50;;;;;;;;;;5052840;28;20455;-73
2021/07/28 11:10:34;;;;;;;11.00;9.90;;;;;;;;;;5052368;28;20479;-73
2021/07/28 11:13:05;;;;;;;9.50;8.70;;;;;;;;;;5053112;28;20463;-72
2021/07/28 11:15:32;;;;;;;10.37;9.47;;;;;;;;;;5053406;28;20424;-73
2021/07/28 11:18:00;;;;;;;10.30;9.30;;;;;;;;;;5053231;28;20557;-73
2021/07/28 11:20:28;;;;;;;10.60;8.83;;;;;;;;;;5053104;28;20536;-73
2021/07/28 11:23:16;;;;;;;10.37;9.57;;;;;;;;;;5052722;28;20456;-74
2021/07/28 11:25:44;;;;;;;11.13;9.97;;;;;;;;;;5056020;28;20480;-75
2021/07/28 11:28:12;;;;;;;10.70;8.23;;;;;;;;;;5057384;28;20467;-71
2021/07/28 11:30:39;;;;;;;8.53;7.83;;;;;;;;;;5057237;28;20535;-73
2021/07/28 11:33:13;;;;;;;8.77;7.97;;;;;;;;;;5056640;28;20453;-75
2021/07/28 11:35:43;;;;;;;9.50;6.80;;;;;;;;;;5056751;28;20480;-73
2021/07/28 11:38:14;;;;;;;8.57;7.30;;;;;;;;;;5057108;28;20467;-75
2021/07/28 11:40:46;;;;;;;9.53;7.10;;;;;;;;;;5056450;28;20441;-75
2021/07/28 11:43:21;;;;;;;12.10;7.60;;;;;;;;;;5056405;28;20452;-77
2021/07/28 11:45:48;;;;;;;7.20;6.50;;;;;;;;;;5056790;28;20472;-76
2021/07/28 11:48:28;;;;;;;6.70;6.17;;;;;;;;;;5056572;28;20451;-77
2021/07/28 11:50:55;;;;;;;6.17;5.70;;;;;;;;;;5056314;28;20502;-74
2021/07/28 11:53:24;;;;;;;5.73;5.23;;;;;;;;;;5056599;28;20459;-75
2021/07/28 11:55:53;;;;;;;6.03;5.43;;;;;;;;;;5056248;28;20445;-74
2021/07/28 11:58:20;;;;;;;6.20;5.57;;;;;;;;;;5056727;28;20836;-74
2021/07/28 12:00:48;;;;;;;6.27;5.70;;;;;;;;;;5056304;28;20445;-75
2021/07/28 12:03:22;;;;;;;7.30;5.60;;;;;;;;;;5056465;28;20445;-69
2021/07/28 12:06:02;;;;;;;5.80;5.30;;;;;;;;;;5056226;28;20994;-76
2021/07/28 12:08:30;;;;;;;6.50;5.60;;;;;;;;;;5056522;28;20488;-73
2021/07/28 12:11:09;;;;;;;7.17;4.67;;;;;;;;;;5056247;28;20469;-76
2021/07/28 12:13:43;;;;;;;7.37;5.37;;;;;;;;;;5056192;28;20528;-76
2021/07/28 12:16:10;;;;;;;4.33;3.93;;;;;;;;;;5056180;28;20481;-69
2021/07/28 12:18:41;;;;;;;5.13;4.70;;;;;;;;;;5055700;28;20456;-70
2021/07/28 12:21:08;;;;;;;4.37;3.97;;;;;;;;;;5056046;28;20445;-72
2021/07/28 12:23:35;;;;;;;5.40;4.90;;;;;;;;;;5051724;28;20458;-74
2021/07/28 12:26:03;;;;;;;4.93;4.40;;;;;;;;;;5046973;28;21001;-75
2021/07/28 12:28:49;;;;;;;9.73;3.83;;;;;;;;;;5055734;28;20441;-73
2021/07/28 12:31:29;;;;;;;7.43;3.97;;;;;;;;;;5055598;28;20445;-77
2021/07/28 12:34:16;;;;;;;4.27;3.87;;;;;;;;;;5056105;28;20511;-76
2021/07/28 12:36:44;;;;;;;7.37;4.50;;;;;;;;;;5055025;28;20547;-73
2021/07/28 12:39:11;;;;;;;5.07;4.67;;;;;;;;;;5055599;28;20516;-73
2021/07/28 12:41:39;;;;;;;6.50;3.87;;;;;;;;;;5055607;28;20815;-71
2021/07/28 12:44:08;;;;;;;5.47;4.30;;;;;;;;;;5055569;28;20437;-76
2021/07/28 12:46:35;;;;;;;4.20;3.80;;;;;;;;;;5056239;28;20482;-72
2021/07/28 12:49:02;;;;;;;3.07;2.87;;;;;;;;;;5055710;28;20507;-72
2021/07/28 12:51:29;;;;;;;5.10;3.70;;;;;;;;;;5055133;28;20474;-72
2021/07/28 12:53:56;;;;;;;4.00;3.60;;;;;;;;;;5055251;28;20451;-75
2021/07/28 12:56:24;;;;;;;3.77;3.47;;;;;;;;;;5055354;28;20446;-72
2021/07/28 12:58:51;;;;;;;4.97;3.00;;;;;;;;;;5055074;28;20533;-71
2021/07/28 13:01:19;;;;;;;3.87;2.90;;;;;;;;;;5055331;28;20820;-74
2021/07/28 13:03:53;;;;;;;4.47;2.80;;;;;;;;;;5055283;28;20845;-74
2021/07/28 13:06:23;;;;;;;3.90;3.30;;;;;;;;;;5055876;28;20477;-73
2021/07/28 13:08:50;;;;;;;4.57;3.30;;;;;;;;;;5055619;28;20448;-74
2021/07/28 13:11:18;;;;;;;7.97;3.43;;;;;;;;;;5054842;28;21003;-68
2021/07/28 13:13:45;;;;;;;8.53;3.30;;;;;;;;;;5054813;28;20954;-77
2021/07/28 13:16:12;;;;;;;3.70;2.70;;;;;;;;;;5054602;28;20454;-73
2021/07/28 13:18:40;;;;;;;3.30;3.00;;;;;;;;;;5055076;28;20472;-81
2021/07/28 13:21:08;;;;;;;4.90;2.83;;;;;;;;;;5054915;28;20442;-81
2021/07/28 13:23:35;;;;;;;2.80;2.50;;;;;;;;;;5054360;28;20450;-74
2021/07/28 13:26:02;;;;;;;3.23;2.83;;;;;;;;;;5054852;28;20844;-80
2021/07/28 13:28:29;;;;;;;2.97;2.37;;;;;;;;;;5055121;28;20528;-70
2021/07/28 13:30:57;;;;;;;3.40;3.10;;;;;;;;;;5054555;28;20527;-72
2021/07/28 13:33:24;;;;;;;6.30;2.97;;;;;;;;;;5054290;28;20444;-75
2021/07/28 13:35:52;;;;;;;2.50;2.30;;;;;;;;;;5054941;28;20452;-78
2021/07/28 13:38:19;;;;;;;2.20;2.00;;;;;;;;;;5047004;28;20491;-82
2021/07/28 13:40:47;;;;;;;3.50;2.20;;;;;;;;;;5034676;28;20445;-72
2021/07/28 13:43:14;;;;;;;3.47;2.50;;;;;;;;;;5036479;28;20947;-80
2021/07/28 13:45:41;;;;;;;3.53;3.03;;;;;;;;;;5035334;28;20510;-80
2021/07/28 13:48:09;;;;;;;2.60;2.40;;;;;;;;;;5033239;28;20453;-79
2021/07/28 13:50:36;;;;;;;2.50;2.30;;;;;;;;;;5035708;28;20449;-82
2021/07/28 13:53:05;;;;;;;3.90;2.70;;;;;;;;;;5035371;28;20444;-76
2021/07/28 13:55:32;;;;;;;2.40;2.20;;;;;;;;;;5034359;28;20448;-73
2021/07/28 13:57:59;;;;;;;2.43;2.23;;;;;;;;;;5034023;28;20453;-82
2021/07/28 14:00:26;;;;;;;4.33;2.37;;;;;;;;;;5034862;28;20808;-76
2021/07/28 14:02:54;;;;;;;2.97;2.40;;;;;;;;;;5033864;28;20538;-73
2021/07/28 14:05:21;;;;;;;4.93;3.00;;;;;;;;;;5034067;28;20784;-72
2021/07/28 14:07:48;;;;;;;2.27;2.07;;;;;;;;;;5034232;28;20460;-79
2021/07/28 14:10:17;;;;;;;4.20;3.00;;;;;;;;;;5034187;28;20521;-80
2021/07/28 14:12:44;;;;;;;2.97;2.27;;;;;;;;;;5034859;28;20504;-78
2021/07/28 14:15:11;;;;;;;4.23;2.70;;;;;;;;;;5034918;28;20449;-71
2021/07/28 14:17:39;;;;;;;3.07;2.77;;;;;;;;;;5033495;28;20912;-77
2021/07/28 14:20:07;;;;;;;2.70;2.40;;;;;;;;;;5034331;28;20435;-89
2021/07/28 14:22:35;;;;;;;6.70;2.60;;;;;;;;;;5034249;28;20454;-81
2021/07/28 14:25:02;;;;;;;3.27;2.90;;;;;;;;;;5034222;28;20442;-80
2021/07/28 14:27:30;;;;;;;2.37;2.27;;;;;;;;;;5033990;28;20570;-80
2021/07/28 14:29:58;;;;;;;3.57;2.70;;;;;;;;;;5034408;28;20449;-81
2021/07/28 14:32:25;;;;;;;3.20;2.90;;;;;;;;;;5034610;28;20448;-81
2021/07/28 14:34:52;;;;;;;4.50;2.93;;;;;;;;;;5034362;28;20442;-77
2021/07/28 14:37:21;;;;;;;2.87;2.67;;;;;;;;;;5034689;28;20798;-69
2021/07/28 14:39:49;;;;;;;3.27;2.50;;;;;;;;;;5054300;28;20492;-78